sensor_id;sensor_type;location;lat;lon;timestamp;pressure;altitude;pressure_sealevel;temperature;humidity
70250;BME280;57644;48.416;-123.374;2023-01-31T00:00:07;102855.27;;;-4.28;70.11
70250;BME280;57644;48.416;-123.374;2023-01-31T00:02:36;102857.32;;;-4.28;70.96
70250;BME280;57644;48.416;-123.374;2023-01-31T00:05:07;102853.28;;;-4.46;71.57
70250;BME280;57644;48.416;-123.374;2023-01-31T00:07:37;102855.02;;;-4.59;72.14
70250;BME280;57644;48.416;-123.374;2023-01-31T00:10:09;102847.02;;;-4.47;72.20
70250;BME280;57644;48.416;-123.374;2023-01-31T00:12:38;102846.32;;;-4.37;72.41
70250;BME280;57644;48.416;-123.374;2023-01-31T00:15:10;102845.04;;;-4.45;73.19
70250;BME280;57644;48.416;-123.374;2023-01-31T00:17:40;102841.69;;;-4.32;72.81
70250;BME280;57644;48.416;-123.374;2023-01-31T00:20:12;102834.68;;;-4.49;73.47
70250;BME280;57644;48.416;-123.374;2023-01-31T00:22:41;102834.20;;;-4.59;73.87
70250;BME280;57644;48.416;-123.374;2023-01-31T00:25:11;102835.33;;;-4.46;73.24
70250;BME280;57644;48.416;-123.374;2023-01-31T00:27:42;102830.75;;;-4.68;74.10
70250;BME280;57644;48.416;-123.374;2023-01-31T00:30:13;102822.93;;;-4.67;73.97
70250;BME280;57644;48.416;-123.374;2023-01-31T00:32:43;102820.87;;;-4.58;73.88
70250;BME280;57644;48.416;-123.374;2023-01-31T00:35:14;102818.31;;;-4.69;74.43
70250;BME280;57644;48.416;-123.374;2023-01-31T00:37:45;102814.22;;;-4.79;75.17
70250;BME280;57644;48.416;-123.374;2023-01-31T00:40:16;102817.00;;;-4.75;75.38
70250;BME280;57644;48.416;-123.374;2023-01-31T00:42:46;102821.76;;;-4.90;76.43
70250;BME280;57644;48.416;-123.374;2023-01-31T00:45:17;102825.70;;;-4.84;76.38
70250;BME280;57644;48.416;-123.374;2023-01-31T00:47:47;102833.92;;;-4.70;76.11
70250;BME280;57644;48.416;-123.374;2023-01-31T00:50:18;102834.19;;;-4.62;75.65
70250;BME280;57644;48.416;-123.374;2023-01-31T00:52:49;102824.17;;;-4.73;76.57
70250;BME280;57644;48.416;-123.374;2023-01-31T00:55:19;102819.96;;;-4.83;76.97
70250;BME280;57644;48.416;-123.374;2023-01-31T00:57:50;102812.39;;;-4.69;76.64
70250;BME280;57644;48.416;-123.374;2023-01-31T01:00:21;102812.54;;;-4.57;76.41
70250;BME280;57644;48.416;-123.374;2023-01-31T01:02:51;102803.18;;;-4.62;76.79
70250;BME280;57644;48.416;-123.374;2023-01-31T01:05:22;102802.08;;;-4.64;76.82
70250;BME280;57644;48.416;-123.374;2023-01-31T01:07:52;102806.17;;;-4.73;76.74
70250;BME280;57644;48.416;-123.374;2023-01-31T01:10:23;102809.27;;;-4.71;76.78
70250;BME280;57644;48.416;-123.374;2023-01-31T01:12:54;102806.53;;;-4.63;76.65
70250;BME280;57644;48.416;-123.374;2023-01-31T01:15:24;102809.54;;;-4.63;76.23
70250;BME280;57644;48.416;-123.374;2023-01-31T01:17:55;102804.96;;;-4.59;76.44
70250;BME280;57644;48.416;-123.374;2023-01-31T01:20:25;102809.46;;;-4.64;76.44
70250;BME280;57644;48.416;-123.374;2023-01-31T01:22:56;102805.16;;;-4.68;76.68
70250;BME280;57644;48.416;-123.374;2023-01-31T01:25:27;102805.43;;;-4.73;77.27
70250;BME280;57644;48.416;-123.374;2023-01-31T01:27:57;102811.78;;;-4.65;77.28
70250;BME280;57644;48.416;-123.374;2023-01-31T01:30:29;102805.61;;;-4.79;78.09
70250;BME280;57644;48.416;-123.374;2023-01-31T01:32:59;102804.28;;;-4.71;78.08
70250;BME280;57644;48.416;-123.374;2023-01-31T01:35:31;102800.85;;;-4.69;77.81
70250;BME280;57644;48.416;-123.374;2023-01-31T01:38:01;102805.75;;;-4.71;78.49
70250;BME280;57644;48.416;-123.374;2023-01-31T01:40:35;102803.41;;;-4.67;77.87
70250;BME280;57644;48.416;-123.374;2023-01-31T01:43:01;102805.96;;;-4.60;77.53
70250;BME280;57644;48.416;-123.374;2023-01-31T01:45:32;102803.61;;;-4.60;77.86
70250;BME280;57644;48.416;-123.374;2023-01-31T01:48:05;102786.66;;;-5.04;77.70
70250;BME280;57644;48.416;-123.374;2023-01-31T01:50:37;102791.77;;;-4.84;77.73
70250;BME280;57644;48.416;-123.374;2023-01-31T01:53:07;102781.16;;;-4.92;77.13
70250;BME280;57644;48.416;-123.374;2023-01-31T01:55:38;102781.85;;;-4.80;77.08
70250;BME280;57644;48.416;-123.374;2023-01-31T01:58:10;102778.17;;;-4.89;77.57
70250;BME280;57644;48.416;-123.374;2023-01-31T02:00:37;102779.38;;;-4.87;77.75
70250;BME280;57644;48.416;-123.374;2023-01-31T02:03:07;102769.08;;;-4.87;77.71
70250;BME280;57644;48.416;-123.374;2023-01-31T02:05:47;102769.69;;;-4.75;77.35
70250;BME280;57644;48.416;-123.374;2023-01-31T02:08:08;102762.23;;;-5.02;77.47
70250;BME280;57644;48.416;-123.374;2023-01-31T02:10:43;102746.97;;;-5.08;78.33
70250;BME280;57644;48.416;-123.374;2023-01-31T02:13:11;102746.27;;;-4.83;77.30
70250;BME280;57644;48.416;-123.374;2023-01-31T02:15:39;102763.54;;;-4.64;76.96
70250;BME280;57644;48.416;-123.374;2023-01-31T02:18:10;102763.83;;;-4.51;76.61
70250;BME280;57644;48.416;-123.374;2023-01-31T02:23:26;102765.75;;;-4.67;76.54
70250;BME280;57644;48.416;-123.374;2023-01-31T02:25:49;102755.48;;;-4.83;76.61
70250;BME280;57644;48.416;-123.374;2023-01-31T02:28:23;102760.13;;;-4.61;76.61
70250;BME280;57644;48.416;-123.374;2023-01-31T02:33:20;102763.47;;;-4.36;76.14
70250;BME280;57644;48.416;-123.374;2023-01-31T02:35:55;102750.61;;;-4.40;76.39
70250;BME280;57644;48.416;-123.374;2023-01-31T02:38:22;102737.30;;;-4.52;75.84
70250;BME280;57644;48.416;-123.374;2023-01-31T02:40:51;102723.20;;;-4.54;75.71
70250;BME280;57644;48.416;-123.374;2023-01-31T02:43:20;102728.83;;;-4.48;76.05
70250;BME280;57644;48.416;-123.374;2023-01-31T02:45:54;102730.08;;;-4.32;75.72
70250;BME280;57644;48.416;-123.374;2023-01-31T02:48:26;102732.02;;;-4.19;75.11
70250;BME280;57644;48.416;-123.374;2023-01-31T02:50:56;102726.14;;;-4.14;75.31
70250;BME280;57644;48.416;-123.374;2023-01-31T02:53:22;102729.32;;;-4.04;74.98
70250;BME280;57644;48.416;-123.374;2023-01-31T02:55:53;102725.98;;;-4.00;74.75
70250;BME280;57644;48.416;-123.374;2023-01-31T02:58:21;102717.73;;;-4.13;74.51
70250;BME280;57644;48.416;-123.374;2023-01-31T03:00:54;102708.72;;;-4.38;75.61
70250;BME280;57644;48.416;-123.374;2023-01-31T03:03:23;102705.96;;;-4.36;75.79
70250;BME280;57644;48.416;-123.374;2023-01-31T03:08:22;102713.90;;;-4.14;75.50
70250;BME280;57644;48.416;-123.374;2023-01-31T03:10:59;102709.30;;;-4.17;75.62
70250;BME280;57644;48.416;-123.374;2023-01-31T03:13:32;102717.46;;;-4.21;75.86
70250;BME280;57644;48.416;-123.374;2023-01-31T03:16:03;102722.05;;;-4.10;76.24
70250;BME280;57644;48.416;-123.374;2023-01-31T03:18:27;102720.24;;;-4.05;76.75
70250;BME280;57644;48.416;-123.374;2023-01-31T03:20:59;102720.09;;;-4.04;76.92
70250;BME280;57644;48.416;-123.374;2023-01-31T03:23:27;102710.04;;;-3.94;76.86
70250;BME280;57644;48.416;-123.374;2023-01-31T03:25:57;102705.14;;;-4.06;76.93
70250;BME280;57644;48.416;-123.374;2023-01-31T03:28:28;102704.87;;;-4.04;76.80
70250;BME280;57644;48.416;-123.374;2023-01-31T03:31:00;102705.43;;;-3.95;76.64
70250;BME280;57644;48.416;-123.374;2023-01-31T03:33:31;102701.36;;;-4.02;76.60
70250;BME280;57644;48.416;-123.374;2023-01-31T03:36:05;102694.33;;;-3.97;76.99
70250;BME280;57644;48.416;-123.374;2023-01-31T03:38:32;102692.49;;;-3.85;76.54
70250;BME280;57644;48.416;-123.374;2023-01-31T03:41:04;102686.99;;;-3.79;76.24
70250;BME280;57644;48.416;-123.374;2023-01-31T03:43:34;102691.24;;;-3.89;76.26
70250;BME280;57644;48.416;-123.374;2023-01-31T03:46:03;102692.59;;;-3.80;76.26
70250;BME280;57644;48.416;-123.374;2023-01-31T03:48:33;102693.64;;;-3.89;76.04
70250;BME280;57644;48.416;-123.374;2023-01-31T03:51:03;102694.34;;;-3.82;76.24
70250;BME280;57644;48.416;-123.374;2023-01-31T03:53:33;102694.31;;;-3.81;76.45
70250;BME280;57644;48.416;-123.374;2023-01-31T03:56:03;102697.82;;;-3.78;76.47
70250;BME280;57644;48.416;-123.374;2023-01-31T03:58:33;102688.86;;;-3.77;76.16
70250;BME280;57644;48.416;-123.374;2023-01-31T04:01:04;102686.39;;;-3.95;76.09
70250;BME280;57644;48.416;-123.374;2023-01-31T04:03:37;102679.00;;;-3.93;76.34
70250;BME280;57644;48.416;-123.374;2023-01-31T04:06:03;102674.68;;;-3.96;76.76
70250;BME280;57644;48.416;-123.374;2023-01-31T04:08:34;102675.20;;;-3.95;76.79
70250;BME280;57644;48.416;-123.374;2023-01-31T04:11:05;102676.73;;;-3.86;76.70
70250;BME280;57644;48.416;-123.374;2023-01-31T04:13:35;102672.74;;;-3.96;76.99
70250;BME280;57644;48.416;-123.374;2023-01-31T04:16:05;102678.02;;;-3.93;77.28
70250;BME280;57644;48.416;-123.374;2023-01-31T04:18:35;102685.53;;;-3.84;77.05
70250;BME280;57644;48.416;-123.374;2023-01-31T04:21:06;102687.25;;;-3.83;76.84
70250;BME280;57644;48.416;-123.374;2023-01-31T04:23:41;102684.65;;;-3.79;76.91
70250;BME280;57644;48.416;-123.374;2023-01-31T04:26:07;102689.94;;;-3.79;76.74
70250;BME280;57644;48.416;-123.374;2023-01-31T04:28:37;102694.17;;;-3.82;76.44
70250;BME280;57644;48.416;-123.374;2023-01-31T04:31:08;102691.09;;;-3.83;76.67
70250;BME280;57644;48.416;-123.374;2023-01-31T04:33:38;102692.78;;;-3.82;77.05
70250;BME280;57644;48.416;-123.374;2023-01-31T04:36:09;102695.44;;;-3.80;77.00
70250;BME280;57644;48.416;-123.374;2023-01-31T04:38:38;102700.19;;;-3.91;77.68
70250;BME280;57644;48.416;-123.374;2023-01-31T04:41:09;102699.82;;;-3.84;77.36
70250;BME280;57644;48.416;-123.374;2023-01-31T04:43:39;102700.37;;;-3.87;76.93
70250;BME280;57644;48.416;-123.374;2023-01-31T04:46:09;102692.96;;;-3.80;76.95
70250;BME280;57644;48.416;-123.374;2023-01-31T04:48:40;102692.06;;;-3.83;76.63
70250;BME280;57644;48.416;-123.374;2023-01-31T04:51:11;102695.55;;;-3.88;76.93
70250;BME280;57644;48.416;-123.374;2023-01-31T04:53:43;102698.55;;;-3.92;76.94
70250;BME280;57644;48.416;-123.374;2023-01-31T04:56:11;102694.29;;;-4.01;77.27
70250;BME280;57644;48.416;-123.374;2023-01-31T04:58:42;102694.81;;;-3.95;77.03
70250;BME280;57644;48.416;-123.374;2023-01-31T05:01:13;102693.48;;;-3.92;77.35
70250;BME280;57644;48.416;-123.374;2023-01-31T05:03:43;102690.05;;;-3.79;76.78
70250;BME280;57644;48.416;-123.374;2023-01-31T05:06:14;102694.93;;;-3.89;76.74
70250;BME280;57644;48.416;-123.374;2023-01-31T05:08:44;102689.76;;;-3.83;76.78
70250;BME280;57644;48.416;-123.374;2023-01-31T05:11:15;102685.76;;;-3.83;76.50
70250;BME280;57644;48.416;-123.374;2023-01-31T05:13:44;102688.97;;;-3.82;76.36
70250;BME280;57644;48.416;-123.374;2023-01-31T05:16:16;102689.97;;;-3.78;76.42
70250;BME280;57644;48.416;-123.374;2023-01-31T05:18:45;102681.51;;;-3.80;76.45
70250;BME280;57644;48.416;-123.374;2023-01-31T05:21:15;102682.01;;;-3.86;76.64
70250;BME280;57644;48.416;-123.374;2023-01-31T05:23:46;102681.37;;;-3.76;76.78
70250;BME280;57644;48.416;-123.374;2023-01-31T05:26:16;102683.38;;;-3.78;77.50
70250;BME280;57644;48.416;-123.374;2023-01-31T05:28:47;102676.96;;;-3.85;77.60
70250;BME280;57644;48.416;-123.374;2023-01-31T05:31:17;102667.16;;;-3.84;77.41
70250;BME280;57644;48.416;-123.374;2023-01-31T05:33:47;102654.02;;;-3.80;77.13
70250;BME280;57644;48.416;-123.374;2023-01-31T05:36:18;102651.71;;;-3.77;76.88
70250;BME280;57644;48.416;-123.374;2023-01-31T05:38:49;102652.48;;;-3.79;76.19
70250;BME280;57644;48.416;-123.374;2023-01-31T05:41:19;102649.73;;;-3.81;76.75
70250;BME280;57644;48.416;-123.374;2023-01-31T05:43:49;102657.73;;;-3.85;76.89
70250;BME280;57644;48.416;-123.374;2023-01-31T05:46:20;102658.52;;;-3.80;77.17
70250;BME280;57644;48.416;-123.374;2023-01-31T05:48:50;102663.89;;;-3.71;76.98
70250;BME280;57644;48.416;-123.374;2023-01-31T05:51:21;102663.43;;;-3.68;76.94
70250;BME280;57644;48.416;-123.374;2023-01-31T05:53:51;102664.80;;;-3.79;76.57
70250;BME280;57644;48.416;-123.374;2023-01-31T05:56:22;102661.88;;;-3.88;76.91
70250;BME280;57644;48.416;-123.374;2023-01-31T05:58:52;102658.40;;;-3.98;77.33
70250;BME280;57644;48.416;-123.374;2023-01-31T06:01:25;102659.69;;;-3.91;77.35
70250;BME280;57644;48.416;-123.374;2023-01-31T06:03:53;102661.93;;;-3.77;77.27
70250;BME280;57644;48.416;-123.374;2023-01-31T06:06:23;102663.28;;;-3.68;76.90
70250;BME280;57644;48.416;-123.374;2023-01-31T06:08:54;102657.57;;;-3.62;76.40
70250;BME280;57644;48.416;-123.374;2023-01-31T06:11:24;102661.24;;;-3.68;76.81
70250;BME280;57644;48.416;-123.374;2023-01-31T06:13:55;102666.01;;;-3.61;77.23
70250;BME280;57644;48.416;-123.374;2023-01-31T06:16:26;102665.61;;;-3.75;77.85
70250;BME280;57644;48.416;-123.374;2023-01-31T06:18:56;102665.20;;;-3.82;77.83
70250;BME280;57644;48.416;-123.374;2023-01-31T06:21:27;102667.60;;;-3.70;77.75
70250;BME280;57644;48.416;-123.374;2023-01-31T06:23:57;102666.41;;;-3.73;77.62
70250;BME280;57644;48.416;-123.374;2023-01-31T06:26:28;102661.54;;;-3.73;78.20
70250;BME280;57644;48.416;-123.374;2023-01-31T06:28:57;102660.31;;;-3.72;78.35
70250;BME280;57644;48.416;-123.374;2023-01-31T06:31:29;102660.66;;;-3.80;78.08
70250;BME280;57644;48.416;-123.374;2023-01-31T06:33:57;102663.38;;;-3.80;78.41
70250;BME280;57644;48.416;-123.374;2023-01-31T06:36:30;102666.04;;;-3.74;78.38
70250;BME280;57644;48.416;-123.374;2023-01-31T06:38:59;102667.27;;;-3.71;78.71
70250;BME280;57644;48.416;-123.374;2023-01-31T06:41:29;102660.56;;;-3.78;78.57
70250;BME280;57644;48.416;-123.374;2023-01-31T06:44:00;102655.43;;;-3.85;79.02
70250;BME280;57644;48.416;-123.374;2023-01-31T06:46:30;102645.65;;;-3.96;79.70
70250;BME280;57644;48.416;-123.374;2023-01-31T06:49:01;102637.72;;;-3.94;79.67
70250;BME280;57644;48.416;-123.374;2023-01-31T06:51:32;102635.23;;;-4.05;80.12
70250;BME280;57644;48.416;-123.374;2023-01-31T06:54:02;102629.34;;;-3.94;79.84
70250;BME280;57644;48.416;-123.374;2023-01-31T06:56:33;102628.07;;;-3.90;79.67
70250;BME280;57644;48.416;-123.374;2023-01-31T06:59:03;102627.64;;;-3.89;79.35
70250;BME280;57644;48.416;-123.374;2023-01-31T07:01:33;102629.08;;;-3.83;79.43
70250;BME280;57644;48.416;-123.374;2023-01-31T07:04:04;102632.73;;;-3.81;79.17
70250;BME280;57644;48.416;-123.374;2023-01-31T07:06:35;102631.25;;;-3.79;78.98
70250;BME280;57644;48.416;-123.374;2023-01-31T07:09:05;102632.61;;;-3.76;79.23
70250;BME280;57644;48.416;-123.374;2023-01-31T07:11:37;102630.99;;;-3.71;78.75
70250;BME280;57644;48.416;-123.374;2023-01-31T07:14:05;102628.83;;;-3.77;79.29
70250;BME280;57644;48.416;-123.374;2023-01-31T07:16:36;102630.77;;;-3.71;78.98
70250;BME280;57644;48.416;-123.374;2023-01-31T07:19:07;102630.56;;;-3.64;78.49
70250;BME280;57644;48.416;-123.374;2023-01-31T07:21:37;102633.16;;;-3.66;78.91
70250;BME280;57644;48.416;-123.374;2023-01-31T07:24:08;102634.91;;;-3.72;79.37
70250;BME280;57644;48.416;-123.374;2023-01-31T07:26:39;102628.89;;;-3.68;79.21
70250;BME280;57644;48.416;-123.374;2023-01-31T07:29:09;102635.77;;;-3.67;79.56
70250;BME280;57644;48.416;-123.374;2023-01-31T07:31:39;102642.42;;;-3.63;79.68
70250;BME280;57644;48.416;-123.374;2023-01-31T07:34:10;102647.46;;;-3.67;80.05
70250;BME280;57644;48.416;-123.374;2023-01-31T07:36:41;102642.10;;;-3.60;79.62
70250;BME280;57644;48.416;-123.374;2023-01-31T07:39:11;102635.33;;;-3.67;80.02
70250;BME280;57644;48.416;-123.374;2023-01-31T07:41:41;102637.13;;;-3.75;80.88
70250;BME280;57644;48.416;-123.374;2023-01-31T07:44:11;102638.40;;;-3.76;81.07
70250;BME280;57644;48.416;-123.374;2023-01-31T07:46:42;102633.32;;;-3.73;81.09
70250;BME280;57644;48.416;-123.374;2023-01-31T07:49:13;102632.77;;;-3.69;81.24
70250;BME280;57644;48.416;-123.374;2023-01-31T07:51:43;102630.30;;;-3.70;81.41
70250;BME280;57644;48.416;-123.374;2023-01-31T07:54:14;102622.87;;;-3.71;81.82
70250;BME280;57644;48.416;-123.374;2023-01-31T07:56:43;102617.70;;;-3.83;82.27
70250;BME280;57644;48.416;-123.374;2023-01-31T07:59:14;102613.20;;;-3.85;82.50
70250;BME280;57644;48.416;-123.374;2023-01-31T08:01:44;102609.65;;;-3.73;82.14
70250;BME280;57644;48.416;-123.374;2023-01-31T08:04:15;102607.26;;;-3.92;83.12
70250;BME280;57644;48.416;-123.374;2023-01-31T08:06:45;102600.27;;;-3.84;83.01
70250;BME280;57644;48.416;-123.374;2023-01-31T08:09:15;102598.41;;;-3.81;83.28
70250;BME280;57644;48.416;-123.374;2023-01-31T08:11:45;102599.08;;;-3.70;83.44
70250;BME280;57644;48.416;-123.374;2023-01-31T08:14:16;102599.94;;;-3.60;82.97
70250;BME280;57644;48.416;-123.374;2023-01-31T08:16:46;102600.09;;;-3.53;82.77
70250;BME280;57644;48.416;-123.374;2023-01-31T08:19:17;102602.30;;;-3.50;82.66
70250;BME280;57644;48.416;-123.374;2023-01-31T08:21:48;102606.09;;;-3.47;82.64
70250;BME280;57644;48.416;-123.374;2023-01-31T08:24:18;102608.35;;;-3.51;82.84
70250;BME280;57644;48.416;-123.374;2023-01-31T08:26:48;102600.94;;;-3.56;83.04
70250;BME280;57644;48.416;-123.374;2023-01-31T08:29:20;102597.65;;;-3.62;83.77
70250;BME280;57644;48.416;-123.374;2023-01-31T08:31:49;102599.05;;;-3.58;83.28
70250;BME280;57644;48.416;-123.374;2023-01-31T08:34:19;102598.67;;;-3.52;83.18
70250;BME280;57644;48.416;-123.374;2023-01-31T08:36:50;102594.75;;;-3.51;83.03
70250;BME280;57644;48.416;-123.374;2023-01-31T08:39:20;102587.68;;;-3.55;83.13
70250;BME280;57644;48.416;-123.374;2023-01-31T08:41:51;102580.78;;;-3.83;83.98
70250;BME280;57644;48.416;-123.374;2023-01-31T08:44:21;102576.11;;;-3.82;84.12
70250;BME280;57644;48.416;-123.374;2023-01-31T08:46:52;102572.39;;;-3.86;84.34
70250;BME280;57644;48.416;-123.374;2023-01-31T08:49:22;102571.32;;;-3.97;84.84
70250;BME280;57644;48.416;-123.374;2023-01-31T08:51:53;102573.30;;;-3.83;84.59
70250;BME280;57644;48.416;-123.374;2023-01-31T08:54:23;102574.80;;;-3.77;84.68
70250;BME280;57644;48.416;-123.374;2023-01-31T08:56:54;102575.35;;;-3.73;84.37
70250;BME280;57644;48.416;-123.374;2023-01-31T08:59:24;102565.72;;;-4.09;85.63
70250;BME280;57644;48.416;-123.374;2023-01-31T09:01:55;102561.98;;;-4.00;85.65
70250;BME280;57644;48.416;-123.374;2023-01-31T09:04:25;102564.83;;;-3.89;85.18
70250;BME280;57644;48.416;-123.374;2023-01-31T09:06:55;102561.08;;;-3.78;84.56
70250;BME280;57644;48.416;-123.374;2023-01-31T09:09:25;102560.57;;;-3.75;84.63
70250;BME280;57644;48.416;-123.374;2023-01-31T09:11:55;102558.78;;;-3.74;84.60
70250;BME280;57644;48.416;-123.374;2023-01-31T09:14:26;102554.35;;;-3.70;84.57
70250;BME280;57644;48.416;-123.374;2023-01-31T09:16:57;102563.10;;;-3.62;84.30
70250;BME280;57644;48.416;-123.374;2023-01-31T09:19:27;102562.17;;;-3.58;84.12
70250;BME280;57644;48.416;-123.374;2023-01-31T09:21:57;102567.57;;;-3.55;83.88
70250;BME280;57644;48.416;-123.374;2023-01-31T09:24:28;102565.94;;;-3.59;84.33
70250;BME280;57644;48.416;-123.374;2023-01-31T09:26:58;102568.31;;;-3.54;84.05
70250;BME280;57644;48.416;-123.374;2023-01-31T09:29:29;102561.59;;;-3.55;84.89
70250;BME280;57644;48.416;-123.374;2023-01-31T09:31:59;102559.26;;;-3.56;84.86
70250;BME280;57644;48.416;-123.374;2023-01-31T09:34:30;102559.31;;;-3.58;84.67
70250;BME280;57644;48.416;-123.374;2023-01-31T09:37:00;102552.17;;;-3.66;85.48
70250;BME280;57644;48.416;-123.374;2023-01-31T09:39:30;102546.64;;;-3.69;85.25
70250;BME280;57644;48.416;-123.374;2023-01-31T09:42:08;102552.47;;;-3.67;85.60
70250;BME280;57644;48.416;-123.374;2023-01-31T09:44:35;102559.95;;;-3.64;85.77
70250;BME280;57644;48.416;-123.374;2023-01-31T09:47:08;102561.15;;;-3.61;85.39
70250;BME280;57644;48.416;-123.374;2023-01-31T09:49:38;102560.01;;;-3.58;85.20
70250;BME280;57644;48.416;-123.374;2023-01-31T09:52:03;102560.05;;;-3.71;86.40
70250;BME280;57644;48.416;-123.374;2023-01-31T09:54:35;102560.69;;;-3.68;86.20
70250;BME280;57644;48.416;-123.374;2023-01-31T09:57:12;102559.28;;;-3.66;86.51
70250;BME280;57644;48.416;-123.374;2023-01-31T09:59:41;102560.33;;;-3.78;87.75
70250;BME280;57644;48.416;-123.374;2023-01-31T10:02:13;102563.88;;;-3.70;87.36
70250;BME280;57644;48.416;-123.374;2023-01-31T10:04:42;102565.13;;;-3.68;87.67
70250;BME280;57644;48.416;-123.374;2023-01-31T10:07:08;102568.73;;;-3.60;86.99
70250;BME280;57644;48.416;-123.374;2023-01-31T10:09:38;102567.35;;;-3.59;87.27
70250;BME280;57644;48.416;-123.374;2023-01-31T10:12:12;102568.49;;;-3.55;87.19
70250;BME280;57644;48.416;-123.374;2023-01-31T10:14:40;102565.45;;;-3.54;86.91
70250;BME280;57644;48.416;-123.374;2023-01-31T10:17:10;102557.30;;;-3.51;86.89
70250;BME280;57644;48.416;-123.374;2023-01-31T10:19:42;102555.62;;;-3.55;86.84
70250;BME280;57644;48.416;-123.374;2023-01-31T10:22:11;102553.23;;;-3.62;87.57
70250;BME280;57644;48.416;-123.374;2023-01-31T10:24:42;102546.38;;;-3.62;87.68
70250;BME280;57644;48.416;-123.374;2023-01-31T10:27:13;102546.31;;;-3.58;87.94
70250;BME280;57644;48.416;-123.374;2023-01-31T10:29:42;102539.93;;;-3.53;87.70
70250;BME280;57644;48.416;-123.374;2023-01-31T10:32:14;102542.99;;;-3.53;87.70
70250;BME280;57644;48.416;-123.374;2023-01-31T10:34:42;102546.81;;;-3.46;87.10
70250;BME280;57644;48.416;-123.374;2023-01-31T10:37:15;102543.04;;;-3.44;87.14
70250;BME280;57644;48.416;-123.374;2023-01-31T10:39:44;102534.02;;;-3.42;87.18
70250;BME280;57644;48.416;-123.374;2023-01-31T10:42:17;102524.76;;;-3.45;87.08
70250;BME280;57644;48.416;-123.374;2023-01-31T10:44:48;102530.56;;;-3.46;87.14
70250;BME280;57644;48.416;-123.374;2023-01-31T10:47:13;102531.71;;;-3.55;86.98
70250;BME280;57644;48.416;-123.374;2023-01-31T10:49:43;102538.77;;;-3.48;86.88
70250;BME280;57644;48.416;-123.374;2023-01-31T10:52:24;102538.54;;;-3.59;86.04
70250;BME280;57644;48.416;-123.374;2023-01-31T10:54:52;102533.54;;;-3.80;86.98
70250;BME280;57644;48.416;-123.374;2023-01-31T10:57:13;102527.59;;;-3.94;86.94
70250;BME280;57644;48.416;-123.374;2023-01-31T10:59:45;102527.47;;;-3.84;86.58
70250;BME280;57644;48.416;-123.374;2023-01-31T11:02:19;102527.89;;;-3.87;86.96
70250;BME280;57644;48.416;-123.374;2023-01-31T11:04:44;102526.85;;;-3.78;86.65
70250;BME280;57644;48.416;-123.374;2023-01-31T11:07:15;102525.46;;;-3.87;86.73
70250;BME280;57644;48.416;-123.374;2023-01-31T11:09:49;102523.27;;;-3.76;86.93
70250;BME280;57644;48.416;-123.374;2023-01-31T11:12:17;102520.29;;;-3.64;86.51
70250;BME280;57644;48.416;-123.374;2023-01-31T11:17:19;102521.34;;;-4.16;88.73
70250;BME280;57644;48.416;-123.374;2023-01-31T11:19:52;102524.09;;;-4.02;88.42
70250;BME280;57644;48.416;-123.374;2023-01-31T11:22:22;102526.75;;;-4.11;88.99
70250;BME280;57644;48.416;-123.374;2023-01-31T11:24:50;102523.35;;;-3.98;88.69
70250;BME280;57644;48.416;-123.374;2023-01-31T11:27:25;102519.48;;;-4.00;88.28
70250;BME280;57644;48.416;-123.374;2023-01-31T11:29:50;102522.02;;;-4.29;89.49
70250;BME280;57644;48.416;-123.374;2023-01-31T11:32:23;102516.40;;;-4.04;88.94
70250;BME280;57644;48.416;-123.374;2023-01-31T11:34:56;102523.22;;;-3.80;87.88
70250;BME280;57644;48.416;-123.374;2023-01-31T11:37:22;102525.77;;;-3.62;87.28
70250;BME280;57644;48.416;-123.374;2023-01-31T11:39:58;102528.89;;;-3.55;87.03
70250;BME280;57644;48.416;-123.374;2023-01-31T11:42:24;102532.30;;;-3.42;86.69
70250;BME280;57644;48.416;-123.374;2023-01-31T11:44:56;102537.48;;;-3.61;87.25
70250;BME280;57644;48.416;-123.374;2023-01-31T11:47:30;102529.50;;;-3.51;86.90
70250;BME280;57644;48.416;-123.374;2023-01-31T11:49:55;102526.18;;;-3.57;86.31
70250;BME280;57644;48.416;-123.374;2023-01-31T11:52:29;102528.51;;;-3.47;86.30
70250;BME280;57644;48.416;-123.374;2023-01-31T11:54:58;102533.19;;;-3.35;86.06
70250;BME280;57644;48.416;-123.374;2023-01-31T11:57:30;102539.62;;;-3.71;87.18
70250;BME280;57644;48.416;-123.374;2023-01-31T11:59:58;102540.99;;;-3.46;86.99
70250;BME280;57644;48.416;-123.374;2023-01-31T12:02:33;102539.21;;;-3.34;87.05
70250;BME280;57644;48.416;-123.374;2023-01-31T12:04:59;102538.81;;;-3.27;87.50
70250;BME280;57644;48.416;-123.374;2023-01-31T12:07:39;102539.36;;;-3.26;87.61
70250;BME280;57644;48.416;-123.374;2023-01-31T12:09:59;102538.30;;;-3.29;88.34
70250;BME280;57644;48.416;-123.374;2023-01-31T12:12:34;102537.28;;;-3.17;88.00
70250;BME280;57644;48.416;-123.374;2023-01-31T12:15:02;102537.73;;;-3.15;88.31
70250;BME280;57644;48.416;-123.374;2023-01-31T12:17:35;102534.37;;;-3.11;87.72
70250;BME280;57644;48.416;-123.374;2023-01-31T12:20:16;102535.77;;;-3.08;87.80
70250;BME280;57644;48.416;-123.374;2023-01-31T12:22:37;102536.96;;;-3.02;87.35
70250;BME280;57644;48.416;-123.374;2023-01-31T12:25:11;102533.60;;;-2.98;88.05
70250;BME280;57644;48.416;-123.374;2023-01-31T12:27:43;102535.76;;;-2.97;88.23
70250;BME280;57644;48.416;-123.374;2023-01-31T12:30:18;102535.41;;;-3.01;89.18
70250;BME280;57644;48.416;-123.374;2023-01-31T12:32:47;102536.22;;;-3.03;89.98
70250;BME280;57644;48.416;-123.374;2023-01-31T12:35:16;102532.08;;;-3.00;90.36
70250;BME280;57644;48.416;-123.374;2023-01-31T12:37:44;102529.24;;;-3.51;94.33
70250;BME280;57644;48.416;-123.374;2023-01-31T12:42:49;102525.09;;;-3.80;96.03
70250;BME280;57644;48.416;-123.374;2023-01-31T12:45:20;102521.80;;;-3.86;98.19
70250;BME280;57644;48.416;-123.374;2023-01-31T12:47:52;102523.53;;;-4.36;100.00